Time;durP1;ratioP1;P1;durP2;ratioP2;P2;SDS_P1;SDS_P2;PMS_P1;PMS_P2;Temp;Humidity;BMP_temperature;BMP_pressure;BME280_temperature;BME280_humidity;BME280_pressure;Samples;Min_cycle;Max_cycle;Signal;HPM_P1;HPM_P2
2023/05/18 00:00:14;;;;;;;;;;;12.70;98.50;;;;;;5035022;28;19920;-77
2023/05/18 00:02:40;;;;;;;;;;;12.60;98.50;;;;;;5034495;28;19916;-77
2023/05/18 00:05:07;;;;;;;;;;;12.60;98.50;;;;;;5036795;28;19913;-77
2023/05/18 00:07:32;;;;;;;;;;;12.60;98.50;;;;;;5034376;28;19913;-77
2023/05/18 00:09:58;;;;;;;;;;;12.60;98.50;;;;;;5034710;28;19963;-76
2023/05/18 00:12:24;;;;;;;;;;;12.50;98.50;;;;;;5031602;28;20363;-76
2023/05/18 00:14:49;;;;;;;;;;;12.40;98.50;;;;;;5033896;28;19997;-77
2023/05/18 00:17:15;;;;;;;;;;;12.50;98.50;;;;;;5031035;28;19920;-77
2023/05/18 00:19:41;;;;;;;;;;;12.60;98.50;;;;;;5031270;28;19909;-77
2023/05/18 00:22:07;;;;;;;;;;;12.60;98.50;;;;;;5030465;28;19959;-76
2023/05/18 00:24:32;;;;;;;;;;;12.50;98.50;;;;;;5026808;28;19921;-77
2023/05/18 00:26:58;;;;;;;;;;;12.50;98.50;;;;;;5030015;28;20027;-77
2023/05/18 00:29:23;;;;;;;;;;;12.50;98.50;;;;;;5033166;28;20351;-76
2023/05/18 00:31:49;;;;;;;;;;;12.40;98.50;;;;;;5037013;28;19999;-77
2023/05/18 00:34:14;;;;;;;;;;;12.40;98.50;;;;;;5031681;28;19909;-77
2023/05/18 00:36:40;;;;;;;;;;;12.40;98.50;;;;;;5031994;28;19912;-77
2023/05/18 00:39:06;;;;;;;;;;;12.40;98.50;;;;;;5026112;28;19932;-76
2023/05/18 00:41:32;;;;;;;;;;;12.50;98.50;;;;;;5027919;28;20011;-76
2023/05/18 00:43:58;;;;;;;;;;;12.50;98.50;;;;;;5031279;28;20017;-76
2023/05/18 00:46:24;;;;;;;;;;;12.60;98.50;;;;;;5030849;28;19909;-77
2023/05/18 00:48:50;;;;;;;;;;;12.50;98.50;;;;;;5029406;28;19975;-76
2023/05/18 00:51:20;;;;;;;;;;;12.50;98.50;;;;;;5033539;28;20326;-76
2023/05/18 00:53:46;;;;;;;;;;;12.40;98.50;;;;;;5026113;28;19928;-76
2023/05/18 00:56:11;;;;;;;;;;;12.30;98.50;;;;;;5031652;28;20347;-77
2023/05/18 00:58:38;;;;;;;;;;;12.30;98.50;;;;;;5033091;28;19909;-77
2023/05/18 01:01:04;;;;;;;;;;;12.20;98.50;;;;;;5026422;28;19913;-78
2023/05/18 01:03:32;;;;;;;;;;;12.30;98.50;;;;;;5030671;28;19917;-78
2023/05/18 01:05:57;;;;;;;;;;;12.20;98.50;;;;;;5029489;28;19931;-77
2023/05/18 01:08:23;;;;;;;;;;;12.30;98.50;;;;;;5029480;28;19909;-76
2023/05/18 01:10:55;;;;;;;;;;;12.30;98.50;;;;;;5029796;28;19935;-76
2023/05/18 01:13:23;;;;;;;;;;;12.20;98.50;;;;;;5025278;28;19921;-76
2023/05/18 01:15:52;;;;;;;;;;;12.30;98.50;;;;;;5029009;28;19909;-76
2023/05/18 01:18:22;;;;;;;;;;;12.30;98.50;;;;;;5030895;28;19988;-76
2023/05/18 01:20:58;;;;;;;;;;;12.40;98.50;;;;;;5026841;28;19909;-75
2023/05/18 01:23:40;;;;;;;;;;;12.30;98.50;;;;;;5028269;28;20286;-75
2023/05/18 01:26:14;;;;;;;;;;;12.20;98.50;;;;;;5028222;28;19917;-75
2023/05/18 01:28:39;;;;;;;;;;;12.20;98.50;;;;;;5029464;28;20445;-75
2023/05/18 01:31:05;;;;;;;;;;;12.20;98.50;;;;;;5029784;28;19909;-75
2023/05/18 01:33:30;;;;;;;;;;;12.30;98.50;;;;;;5028687;28;19913;-75
2023/05/18 01:35:56;;;;;;;;;;;12.30;98.50;;;;;;5029176;28;19923;-75
2023/05/18 01:38:22;;;;;;;;;;;12.20;98.50;;;;;;5027496;28;19917;-76
2023/05/18 01:41:06;;;;;;;;;;;12.20;98.50;;;;;;5027582;28;19913;-75
2023/05/18 01:43:33;;;;;;;;;;;12.30;98.50;;;;;;5026293;28;19917;-75
2023/05/18 01:46:02;;;;;;;;;;;12.20;98.50;;;;;;5028916;28;19970;-75
2023/05/18 01:48:28;;;;;;;;;;;12.30;98.50;;;;;;5029647;28;19913;-75
2023/05/18 01:50:56;;;;;;;;;;;12.20;98.50;;;;;;5028850;28;19909;-75
2023/05/18 01:53:30;;;;;;;;;;;12.20;98.50;;;;;;5022496;28;20329;-75
2023/05/18 01:55:56;;;;;;;;;;;12.20;98.50;;;;;;5030301;28;19952;-75
2023/05/18 01:58:22;;;;;;;;;;;12.10;98.50;;;;;;5028636;28;20134;-75
2023/05/18 02:00:48;;;;;;;;;;;12.10;98.50;;;;;;5029205;28;20314;-76
2023/05/18 02:03:14;;;;;;;;;;;12.10;98.50;;;;;;5025580;28;19916;-75
2023/05/18 02:05:39;;;;;;;;;;;12.10;98.50;;;;;;5026033;28;19910;-76
2023/05/18 02:08:05;;;;;;;;;;;12.20;98.50;;;;;;5029902;28;20391;-75
2023/05/18 02:10:30;;;;;;;;;;;12.20;98.50;;;;;;5030331;28;19913;-76
2023/05/18 02:12:56;;;;;;;;;;;12.30;98.50;;;;;;5027851;28;19951;-75
2023/05/18 02:15:21;;;;;;;;;;;12.30;98.50;;;;;;5020437;28;19970;-75
2023/05/18 02:17:47;;;;;;;;;;;12.30;98.50;;;;;;5029146;28;19916;-75
2023/05/18 02:20:17;;;;;;;;;;;12.30;98.50;;;;;;5033136;28;19909;-76
2023/05/18 02:22:43;;;;;;;;;;;12.50;98.50;;;;;;5028447;28;20386;-76
2023/05/18 02:25:08;;;;;;;;;;;12.50;98.50;;;;;;5028173;28;20003;-75
2023/05/18 02:27:35;;;;;;;;;;;12.50;98.50;;;;;;5029362;28;20462;-76
2023/05/18 02:30:03;;;;;;;;;;;12.60;98.50;;;;;;5031110;28;19913;-75
2023/05/18 02:32:28;;;;;;;;;;;12.70;98.50;;;;;;5031579;28;19913;-75
2023/05/18 02:34:54;;;;;;;;;;;12.70;98.50;;;;;;5021720;28;19913;-75
2023/05/18 02:37:21;;;;;;;;;;;12.70;98.50;;;;;;5034802;28;19927;-76
2023/05/18 02:39:47;;;;;;;;;;;12.80;98.50;;;;;;5033427;28;20305;-77
2023/05/18 02:42:12;;;;;;;;;;;12.80;98.50;;;;;;5028972;28;19909;-76
2023/05/18 02:44:38;;;;;;;;;;;12.80;98.50;;;;;;5033663;28;19980;-77
2023/05/18 02:47:04;;;;;;;;;;;12.70;98.50;;;;;;5060291;28;19916;-77
2023/05/18 02:49:29;;;;;;;;;;;12.70;98.50;;;;;;5022427;28;20407;-76
2023/05/18 02:51:55;;;;;;;;;;;12.60;98.50;;;;;;5032681;28;19986;-75
2023/05/18 02:54:20;;;;;;;;;;;12.50;98.50;;;;;;5028048;28;19913;-76
2023/05/18 02:56:46;;;;;;;;;;;12.60;98.50;;;;;;5033951;28;19909;-76
2023/05/18 02:59:11;;;;;;;;;;;12.60;98.50;;;;;;5029705;28;19939;-76
2023/05/18 03:01:38;;;;;;;;;;;12.60;98.50;;;;;;5030589;28;19916;-76
2023/05/18 03:04:04;;;;;;;;;;;12.70;98.50;;;;;;5037241;28;19917;-76
2023/05/18 03:06:30;;;;;;;;;;;12.70;98.50;;;;;;5034325;28;19909;-76
2023/05/18 03:08:55;;;;;;;;;;;12.50;98.50;;;;;;5028320;28;19909;-76
2023/05/18 03:11:21;;;;;;;;;;;12.40;98.50;;;;;;5031649;28;19966;-75
2023/05/18 03:13:47;;;;;;;;;;;12.40;98.50;;;;;;5030580;28;19940;-76
2023/05/18 03:16:13;;;;;;;;;;;12.50;98.50;;;;;;5033190;28;20559;-75
2023/05/18 03:18:39;;;;;;;;;;;12.40;98.50;;;;;;5032267;28;20048;-75
2023/05/18 03:21:04;;;;;;;;;;;12.40;98.50;;;;;;5029211;28;20379;-74
2023/05/18 03:23:30;;;;;;;;;;;12.20;98.50;;;;;;5029968;28;20036;-75
2023/05/18 03:25:56;;;;;;;;;;;12.20;98.50;;;;;;5031951;28;19956;-75
2023/05/18 03:28:21;;;;;;;;;;;12.20;98.50;;;;;;5036596;28;19917;-75
2023/05/18 03:30:47;;;;;;;;;;;12.10;98.50;;;;;;5031588;28;19935;-75
2023/05/18 03:33:13;;;;;;;;;;;12.10;98.50;;;;;;5032001;28;19917;-75
2023/05/18 03:35:39;;;;;;;;;;;12.10;98.50;;;;;;5031790;28;19913;-75
2023/05/18 03:38:06;;;;;;;;;;;12.30;98.50;;;;;;5037723;28;19913;-75
2023/05/18 03:40:31;;;;;;;;;;;12.30;98.50;;;;;;5030028;28;20377;-75
2023/05/18 03:42:57;;;;;;;;;;;12.20;98.50;;;;;;5029915;28;19952;-75
2023/05/18 03:45:23;;;;;;;;;;;12.20;98.50;;;;;;5029847;28;19983;-76
2023/05/18 03:47:49;;;;;;;;;;;12.20;98.50;;;;;;5031373;28;19909;-75
2023/05/18 03:50:15;;;;;;;;;;;12.30;98.50;;;;;;5030505;28;19909;-75
2023/05/18 03:52:43;;;;;;;;;;;12.30;98.50;;;;;;5028872;28;19913;-76
2023/05/18 03:55:08;;;;;;;;;;;12.40;98.50;;;;;;5031230;28;20004;-75
2023/05/18 03:57:34;;;;;;;;;;;12.50;98.50;;;;;;5032885;28;19948;-76
2023/05/18 04:00:00;;;;;;;;;;;12.50;98.50;;;;;;5033174;28;20375;-76
2023/05/18 04:02:26;;;;;;;;;;;12.60;98.50;;;;;;5031316;28;19913;-75
2023/05/18 04:04:53;;;;;;;;;;;12.60;98.50;;;;;;5028151;28;19920;-75
2023/05/18 04:07:21;;;;;;;;;;;12.60;98.50;;;;;;5033447;28;19917;-75
2023/05/18 04:09:47;;;;;;;;;;;12.60;98.50;;;;;;5029564;28;19917;-75
2023/05/18 04:12:12;;;;;;;;;;;12.60;98.50;;;;;;5027940;28;19923;-75
2023/05/18 04:14:41;;;;;;;;;;;12.60;98.50;;;;;;5029519;28;20003;-76
2023/05/18 04:17:07;;;;;;;;;;;12.50;98.50;;;;;;5031613;28;19959;-76
2023/05/18 04:19:33;;;;;;;;;;;12.50;98.50;;;;;;5030178;28;19935;-76
2023/05/18 04:21:59;;;;;;;;;;;12.60;98.50;;;;;;5032477;28;19916;-76
2023/05/18 04:24:25;;;;;;;;;;;12.70;98.50;;;;;;5033306;28;19917;-76
2023/05/18 04:26:51;;;;;;;;;;;12.80;98.50;;;;;;5033599;28;19920;-77
2023/05/18 04:29:17;;;;;;;;;;;12.80;98.50;;;;;;5032714;28;19908;-77
2023/05/18 04:31:46;;;;;;;;;;;12.70;98.50;;;;;;5031122;28;20004;-77
2023/05/18 04:34:12;;;;;;;;;;;12.80;98.50;;;;;;5027078;28;19913;-77
2023/05/18 04:36:39;;;;;;;;;;;12.70;98.50;;;;;;5030185;28;19909;-77
2023/05/18 04:39:06;;;;;;;;;;;12.70;98.50;;;;;;5028166;28;19919;-77
2023/05/18 04:41:33;;;;;;;;;;;12.50;98.50;;;;;;5029295;28;20337;-77
2023/05/18 04:43:59;;;;;;;;;;;12.50;98.50;;;;;;5031507;28;20386;-76
2023/05/18 04:46:25;;;;;;;;;;;12.50;98.50;;;;;;5032424;28;20162;-77
2023/05/18 04:48:51;;;;;;;;;;;12.60;98.50;;;;;;5034238;28;20015;-78
2023/05/18 04:51:20;;;;;;;;;;;12.70;98.50;;;;;;5029315;28;20378;-76
2023/05/18 04:53:48;;;;;;;;;;;12.80;98.50;;;;;;5027327;28;19912;-77
2023/05/18 04:56:19;;;;;;;;;;;12.80;98.50;;;;;;5029912;28;19909;-75
2023/05/18 04:58:46;;;;;;;;;;;12.90;98.50;;;;;;5031915;28;19909;-76
2023/05/18 05:01:14;;;;;;;;;;;12.90;98.50;;;;;;5031001;28;19967;-77
2023/05/18 05:03:42;;;;;;;;;;;12.90;98.50;;;;;;5022330;28;19925;-77
2023/05/18 05:06:08;;;;;;;;;;;12.90;98.50;;;;;;5028078;28;19916;-76
2023/05/18 05:08:34;;;;;;;;;;;13.00;98.50;;;;;;5028411;28;19909;-77
2023/05/18 05:11:00;;;;;;;;;;;13.10;98.50;;;;;;5029619;28;20298;-77
2023/05/18 05:13:25;;;;;;;;;;;13.10;98.50;;;;;;5028555;28;19913;-78
2023/05/18 05:15:51;;;;;;;;;;;13.20;98.50;;;;;;5044178;28;19931;-79
2023/05/18 05:18:16;;;;;;;;;;;13.10;98.50;;;;;;5028300;28;19909;-79
2023/05/18 05:20:42;;;;;;;;;;;13.00;98.50;;;;;;5029475;28;20301;-79
2023/05/18 05:23:08;;;;;;;;;;;13.00;98.50;;;;;;5029312;28;20008;-78
2023/05/18 05:25:33;;;;;;;;;;;12.90;98.50;;;;;;5030285;28;19916;-78
2023/05/18 05:27:59;;;;;;;;;;;13.00;98.50;;;;;;5026722;28;21588;-79
2023/05/18 05:30:24;;;;;;;;;;;12.90;98.50;;;;;;5030204;28;19974;-78
2023/05/18 05:32:50;;;;;;;;;;;12.90;98.50;;;;;;5030024;28;20337;-78
2023/05/18 05:35:15;;;;;;;;;;;13.00;98.50;;;;;;5028759;28;20035;-78
2023/05/18 05:37:41;;;;;;;;;;;13.00;98.50;;;;;;5025050;28;19917;-78
2023/05/18 05:40:08;;;;;;;;;;;13.10;98.50;;;;;;5026034;28;20334;-81
2023/05/18 05:42:34;;;;;;;;;;;13.20;98.50;;;;;;5029946;28;19913;-78
2023/05/18 05:44:59;;;;;;;;;;;13.20;98.50;;;;;;5028443;28;19916;-78
2023/05/18 05:47:25;;;;;;;;;;;13.20;98.50;;;;;;5030744;28;20688;-78
2023/05/18 05:49:50;;;;;;;;;;;13.10;98.50;;;;;;5029165;28;20042;-78
2023/05/18 05:52:16;;;;;;;;;;;13.20;98.50;;;;;;5028556;28;20378;-79
2023/05/18 05:54:41;;;;;;;;;;;13.20;98.50;;;;;;5028474;28;19934;-79
2023/05/18 05:57:26;;;;;;;;;;;13.20;98.50;;;;;;5032868;28;20306;-79
2023/05/18 05:59:51;;;;;;;;;;;13.20;98.50;;;;;;5026441;28;19909;-79
2023/05/18 06:02:17;;;;;;;;;;;13.10;98.50;;;;;;5028976;28;19912;-79
2023/05/18 06:04:43;;;;;;;;;;;13.20;98.50;;;;;;5029520;28;19920;-79
2023/05/18 06:07:08;;;;;;;;;;;13.20;98.50;;;;;;5028171;28;20293;-79
2023/05/18 06:09:34;;;;;;;;;;;13.20;98.50;;;;;;5028109;28;19909;-79
2023/05/18 06:11:59;;;;;;;;;;;13.20;98.50;;;;;;5027922;28;19916;-79
2023/05/18 06:14:25;;;;;;;;;;;13.10;98.50;;;;;;5025223;28;20350;-79
2023/05/18 06:16:50;;;;;;;;;;;13.10;98.50;;;;;;5026241;28;19913;-79
2023/05/18 06:19:16;;;;;;;;;;;13.00;98.50;;;;;;5026099;28;20280;-79
2023/05/18 06:21:41;;;;;;;;;;;13.00;98.50;;;;;;5026656;28;19920;-77
2023/05/18 06:24:08;;;;;;;;;;;13.00;98.50;;;;;;5028974;28;20345;-78
2023/05/18 06:26:33;;;;;;;;;;;13.00;98.50;;;;;;5026713;28;19917;-78
2023/05/18 06:28:59;;;;;;;;;;;13.10;98.50;;;;;;5021608;28;19911;-79
2023/05/18 06:31:24;;;;;;;;;;;13.20;98.50;;;;;;5025580;28;20383;-79
2023/05/18 06:33:50;;;;;;;;;;;13.30;98.50;;;;;;5029912;28;19916;-79
2023/05/18 06:36:16;;;;;;;;;;;13.40;98.50;;;;;;5029441;28;20370;-79
2023/05/18 06:38:41;;;;;;;;;;;13.50;98.50;;;;;;5034693;28;19967;-78
2023/05/18 06:41:07;;;;;;;;;;;13.50;98.50;;;;;;5028627;28;19909;-78
2023/05/18 06:43:33;;;;;;;;;;;13.50;98.50;;;;;;5025366;28;20291;-81
2023/05/18 06:45:58;;;;;;;;;;;13.60;98.50;;;;;;5025747;28;20500;-81
2023/05/18 06:48:25;;;;;;;;;;;13.70;98.50;;;;;;5028014;28;19916;-80
2023/05/18 06:50:50;;;;;;;;;;;13.80;98.50;;;;;;5037557;28;19919;-79
2023/05/18 06:53:16;;;;;;;;;;;13.80;98.50;;;;;;5032538;28;20102;-80
2023/05/18 06:55:41;;;;;;;;;;;13.80;98.50;;;;;;5038753;28;19913;-81
2023/05/18 06:58:07;;;;;;;;;;;13.90;98.50;;;;;;5041301;28;19972;-81
2023/05/18 07:00:32;;;;;;;;;;;14.00;98.50;;;;;;5040944;28;19936;-80
2023/05/18 07:02:58;;;;;;;;;;;14.00;98.50;;;;;;5036305;28;19925;-80
2023/05/18 07:05:23;;;;;;;;;;;14.10;98.50;;;;;;5041712;28;19980;-80
2023/05/18 07:07:49;;;;;;;;;;;14.20;98.50;;;;;;5038944;28;19909;-81
2023/05/18 07:10:14;;;;;;;;;;;14.30;98.50;;;;;;5040361;28;19904;-80
2023/05/18 07:12:40;;;;;;;;;;;14.40;98.50;;;;;;5041163;28;19946;-80
2023/05/18 07:15:06;;;;;;;;;;;14.40;98.20;;;;;;5042917;28;19917;-81
2023/05/18 07:17:32;;;;;;;;;;;14.50;97.80;;;;;;5050289;28;20049;-81
2023/05/18 07:19:57;;;;;;;;;;;14.40;96.90;;;;;;5042105;28;19912;-79
2023/05/18 07:22:23;;;;;;;;;;;14.40;97.00;;;;;;5042835;28;19955;-81
2023/05/18 07:24:48;;;;;;;;;;;14.40;97.10;;;;;;5042683;28;19991;-81
2023/05/18 07:27:14;;;;;;;;;;;14.50;97.30;;;;;;5043283;28;19940;-80
2023/05/18 07:29:40;;;;;;;;;;;14.50;97.00;;;;;;5069841;28;19932;-81
2023/05/18 07:32:06;;;;;;;;;;;14.50;97.10;;;;;;5047232;28;19968;-80
2023/05/18 07:34:32;;;;;;;;;;;14.50;96.60;;;;;;5044466;28;19959;-80
2023/05/18 07:36:58;;;;;;;;;;;14.50;96.20;;;;;;5046865;28;20416;-80
2023/05/18 07:39:27;;;;;;;;;;;14.50;96.30;;;;;;5048790;28;19999;-80
2023/05/18 07:41:53;;;;;;;;;;;14.50;95.40;;;;;;5045576;28;20298;-80
2023/05/18 07:44:19;;;;;;;;;;;14.50;94.80;;;;;;5038971;28;19959;-79
2023/05/18 07:46:45;;;;;;;;;;;14.50;95.20;;;;;;5044396;28;19909;-79
2023/05/18 07:49:10;;;;;;;;;;;14.40;94.90;;;;;;5044157;28;19920;-80
2023/05/18 07:51:36;;;;;;;;;;;14.40;95.70;;;;;;5035469;28;20375;-80
2023/05/18 07:54:01;;;;;;;;;;;14.40;95.80;;;;;;5027683;28;20031;-80
2023/05/18 07:56:28;;;;;;;;;;;14.40;94.90;;;;;;5033180;28;19941;-80
2023/05/18 07:58:53;;;;;;;;;;;14.30;94.70;;;;;;5033866;28;20387;-79
2023/05/18 08:01:20;;;;;;;;;;;14.30;95.00;;;;;;5034964;28;19905;-79
2023/05/18 08:03:46;;;;;;;;;;;14.30;95.70;;;;;;5031424;28;19968;-80
2023/05/18 08:06:12;;;;;;;;;;;14.20;94.80;;;;;;5032954;28;20397;-80
2023/05/18 08:08:37;;;;;;;;;;;14.10;95.30;;;;;;5029090;28;20379;-80
2023/05/18 08:11:03;;;;;;;;;;;14.10;94.90;;;;;;5031987;28;20276;-80
2023/05/18 08:13:29;;;;;;;;;;;14.00;94.60;;;;;;5034924;28;20007;-80
2023/05/18 08:15:54;;;;;;;;;;;14.00;94.70;;;;;;5041248;28;20008;-80
2023/05/18 08:18:21;;;;;;;;;;;14.00;95.20;;;;;;5034252;28;19920;-80
2023/05/18 08:20:48;;;;;;;;;;;13.90;95.10;;;;;;5039070;28;20016;-79
2023/05/18 08:23:14;;;;;;;;;;;13.90;94.90;;;;;;5032583;28;20310;-80
2023/05/18 08:25:39;;;;;;;;;;;13.80;95.00;;;;;;5033343;28;19909;-80
2023/05/18 08:28:05;;;;;;;;;;;13.80;95.00;;;;;;5038216;28;19967;-80
2023/05/18 08:30:30;;;;;;;;;;;13.80;94.70;;;;;;5038029;28;20000;-80
2023/05/18 08:32:56;;;;;;;;;;;13.80;94.90;;;;;;5036818;28;19909;-81
2023/05/18 08:35:21;;;;;;;;;;;13.80;94.70;;;;;;5032878;28;19917;-82
2023/05/18 08:37:48;;;;;;;;;;;13.70;94.90;;;;;;5042046;28;19935;-80
2023/05/18 08:40:14;;;;;;;;;;;13.70;94.80;;;;;;5034748;28;20050;-81
2023/05/18 08:42:58;;;;;;;;;;;13.70;94.70;;;;;;5033415;28;20007;-80
2023/05/18 08:45:36;;;;;;;;;;;13.70;95.20;;;;;;5031005;28;19909;-79
2023/05/18 08:48:03;;;;;;;;;;;13.70;94.60;;;;;;5041446;28;19966;-79
2023/05/18 08:50:30;;;;;;;;;;;13.70;94.90;;;;;;5034870;28;19917;-79
2023/05/18 08:52:59;;;;;;;;;;;13.80;95.00;;;;;;5030437;28;20326;-78
2023/05/18 08:55:26;;;;;;;;;;;13.80;95.00;;;;;;5034437;28;19909;-80
2023/05/18 08:57:54;;;;;;;;;;;13.80;94.90;;;;;;5037166;28;19916;-79
2023/05/18 09:00:23;;;;;;;;;;;13.80;94.30;;;;;;5032602;28;19916;-80
2023/05/18 09:02:49;;;;;;;;;;;13.80;94.30;;;;;;5038815;28;20382;-80
2023/05/18 09:05:15;;;;;;;;;;;13.80;94.40;;;;;;5030288;28;19905;-79
2023/05/18 09:07:41;;;;;;;;;;;13.90;94.70;;;;;;5037574;28;19908;-79
2023/05/18 09:10:10;;;;;;;;;;;13.80;93.80;;;;;;5031989;28;19952;-80
2023/05/18 09:12:37;;;;;;;;;;;13.70;92.00;;;;;;5029993;28;20386;-82
2023/05/18 09:15:03;;;;;;;;;;;13.70;92.20;;;;;;5034369;28;19916;-81
2023/05/18 09:17:28;;;;;;;;;;;13.50;92.20;;;;;;5029993;28;20486;-81
2023/05/18 09:19:54;;;;;;;;;;;13.50;92.90;;;;;;5033473;28;20330;-81
2023/05/18 09:22:20;;;;;;;;;;;13.50;93.20;;;;;;5034817;28;19952;-80
2023/05/18 09:24:46;;;;;;;;;;;13.50;94.10;;;;;;5038722;28;20302;-79
2023/05/18 09:27:11;;;;;;;;;;;13.40;93.10;;;;;;5052590;28;19912;-78
2023/05/18 09:29:49;;;;;;;;;;;13.50;92.80;;;;;;5043426;28;19920;-79
2023/05/18 09:32:15;;;;;;;;;;;13.40;93.90;;;;;;5029356;28;19913;-79
2023/05/18 09:34:41;;;;;;;;;;;13.40;94.40;;;;;;5029044;28;19913;-79
2023/05/18 09:37:06;;;;;;;;;;;13.40;95.00;;;;;;5027028;28;19960;-79
2023/05/18 09:39:32;;;;;;;;;;;13.50;95.50;;;;;;5027568;28;20376;-78
2023/05/18 09:41:57;;;;;;;;;;;13.30;94.90;;;;;;5029742;28;19913;-82
2023/05/18 09:44:30;;;;;;;;;;;13.30;95.90;;;;;;5034291;28;19961;-80
2023/05/18 09:46:56;;;;;;;;;;;13.30;95.50;;;;;;5037698;28;19971;-83
2023/05/18 09:49:21;;;;;;;;;;;13.40;95.20;;;;;;5043930;28;19916;-81
2023/05/18 09:51:47;;;;;;;;;;;13.30;94.70;;;;;;5037164;28;19919;-81
2023/05/18 09:54:13;;;;;;;;;;;13.30;94.90;;;;;;5036596;28;19913;-81
2023/05/18 09:56:38;;;;;;;;;;;13.10;94.50;;;;;;5030428;28;19913;-81
2023/05/18 09:59:11;;;;;;;;;;;13.20;94.30;;;;;;5044300;28;19918;-82
2023/05/18 10:01:53;;;;;;;;;;;13.10;94.00;;;;;;5029137;28;19916;-81
2023/05/18 10:04:19;;;;;;;;;;;13.10;93.80;;;;;;5026060;28;19951;-82
2023/05/18 10:06:48;;;;;;;;;;;13.10;94.40;;;;;;5029343;28;20358;-81
2023/05/18 10:09:15;;;;;;;;;;;13.20;94.70;;;;;;5022702;28;19905;-80
2023/05/18 10:11:41;;;;;;;;;;;13.30;94.80;;;;;;5041398;28;19909;-84
2023/05/18 10:14:09;;;;;;;;;;;13.40;94.80;;;;;;5038657;28;19917;-83
2023/05/18 10:16:35;;;;;;;;;;;13.50;94.20;;;;;;5033048;28;19916;-80
2023/05/18 10:19:01;;;;;;;;;;;13.50;94.20;;;;;;5029716;28;19909;-82
2023/05/18 10:21:29;;;;;;;;;;;13.70;94.40;;;;;;5040259;28;20007;-79
2023/05/18 10:23:56;;;;;;;;;;;13.60;93.10;;;;;;5042238;28;19917;-83
2023/05/18 10:26:23;;;;;;;;;;;13.70;93.30;;;;;;5025854;28;19913;-82
2023/05/18 10:28:50;;;;;;;;;;;13.70;93.10;;;;;;5030510;28;19917;-83
2023/05/18 10:31:16;;;;;;;;;;;13.80;93.60;;;;;;5029611;28;19979;-81
2023/05/18 10:33:42;;;;;;;;;;;13.90;93.00;;;;;;5039511;28;19913;-83
2023/05/18 10:36:09;;;;;;;;;;;13.80;92.30;;;;;;5027709;28;19909;-84
2023/05/18 10:38:36;;;;;;;;;;;13.80;92.20;;;;;;5039191;28;19990;-82
2023/05/18 10:41:04;;;;;;;;;;;13.70;92.30;;;;;;5037581;28;19910;-82
2023/05/18 10:43:30;;;;;;;;;;;13.60;92.80;;;;;;5036106;28;19943;-83
2023/05/18 10:45:57;;;;;;;;;;;13.50;91.70;;;;;;5032701;28;19909;-81
2023/05/18 10:48:24;;;;;;;;;;;13.60;92.10;;;;;;5022952;28;19904;-80
2023/05/18 10:50:51;;;;;;;;;;;13.60;92.20;;;;;;5028168;28;19966;-80
2023/05/18 10:53:18;;;;;;;;;;;13.70;92.80;;;;;;5026239;28;19905;-80
2023/05/18 10:55:44;;;;;;;;;;;13.50;91.60;;;;;;5028076;28;19916;-81
2023/05/18 10:58:13;;;;;;;;;;;13.40;92.50;;;;;;5028618;28;19938;-78
2023/05/18 11:00:39;;;;;;;;;;;13.40;92.20;;;;;;5029562;28;19921;-78
2023/05/18 11:03:12;;;;;;;;;;;13.30;92.10;;;;;;5024357;28;20302;-77
2023/05/18 11:05:39;;;;;;;;;;;13.40;92.60;;;;;;5029895;28;19916;-77
2023/05/18 11:08:04;;;;;;;;;;;13.40;93.20;;;;;;5024691;28;19927;-77
2023/05/18 11:10:45;;;;;;;;;;;13.50;93.20;;;;;;5030035;28;20376;-77
2023/05/18 11:13:12;;;;;;;;;;;13.50;92.90;;;;;;5029987;28;20436;-77
2023/05/18 11:15:49;;;;;;;;;;;13.50;92.70;;;;;;5038953;28;20294;-78
2023/05/18 11:18:15;;;;;;;;;;;13.60;92.10;;;;;;5023709;28;19905;-78
2023/05/18 11:20:43;;;;;;;;;;;13.60;92.00;;;;;;5031053;28;19939;-78
2023/05/18 11:23:09;;;;;;;;;;;13.60;92.30;;;;;;5032235;28;20633;-78
2023/05/18 11:25:35;;;;;;;;;;;13.70;91.50;;;;;;5025256;28;20146;-78
2023/05/18 11:28:03;;;;;;;;;;;13.70;90.80;;;;;;5026120;28;19916;-78
2023/05/18 11:30:43;;;;;;;;;;;13.70;91.10;;;;;;5030220;28;20389;-78
2023/05/18 11:33:13;;;;;;;;;;;13.80;91.70;;;;;;5057935;28;19942;-78
2023/05/18 11:35:57;;;;;;;;;;;13.60;93.10;;;;;;5028915;28;19931;-78
2023/05/18 11:38:44;;;;;;;;;;;13.70;93.60;;;;;;5030157;28;20923;-79
2023/05/18 11:41:28;;;;;;;;;;;13.60;93.80;;;;;;5031215;28;20286;-76
2023/05/18 11:44:13;;;;;;;;;;;13.60;93.90;;;;;;5031499;28;19924;-76
2023/05/18 11:46:39;;;;;;;;;;;13.60;93.90;;;;;;5029638;28;20004;-77
2023/05/18 11:49:08;;;;;;;;;;;13.60;94.00;;;;;;5030798;28;19917;-77
2023/05/18 11:51:53;;;;;;;;;;;13.60;94.00;;;;;;5030791;28;20310;-77
2023/05/18 11:54:21;;;;;;;;;;;13.70;94.10;;;;;;5026592;28;20353;-77
2023/05/18 11:56:47;;;;;;;;;;;13.70;93.80;;;;;;5031303;28;19916;-77
2023/05/18 11:59:13;;;;;;;;;;;13.60;93.80;;;;;;5031313;28;19905;-77
2023/05/18 12:01:40;;;;;;;;;;;13.40;93.60;;;;;;5030001;28;19944;-77
2023/05/18 12:04:06;;;;;;;;;;;13.20;93.90;;;;;;5025150;28;19913;-78
2023/05/18 12:06:31;;;;;;;;;;;13.00;94.60;;;;;;5027307;28;20364;-78
2023/05/18 12:08:57;;;;;;;;;;;13.00;95.50;;;;;;5025670;28;20007;-78
2023/05/18 12:11:24;;;;;;;;;;;12.80;94.90;;;;;;5030728;28;19916;-78
2023/05/18 12:13:51;;;;;;;;;;;12.70;95.30;;;;;;5030480;28;20263;-78
2023/05/18 12:16:17;;;;;;;;;;;12.70;95.40;;;;;;5030910;28;19916;-78
2023/05/18 12:18:49;;;;;;;;;;;12.70;95.80;;;;;;5030118;28;19905;-78
2023/05/18 12:21:19;;;;;;;;;;;12.70;95.60;;;;;;5027974;28;19913;-77
2023/05/18 12:23:45;;;;;;;;;;;12.70;95.50;;;;;;5030914;28;20306;-78
2023/05/18 12:26:10;;;;;;;;;;;12.70;95.30;;;;;;5023992;28;19924;-78
2023/05/18 12:28:36;;;;;;;;;;;12.80;94.50;;;;;;5019277;28;19988;-77
2023/05/18 12:31:06;;;;;;;;;;;12.90;94.30;;;;;;5030945;28;19920;-77
2023/05/18 12:33:34;;;;;;;;;;;13.00;94.10;;;;;;5031088;28;19913;-79
2023/05/18 12:36:00;;;;;;;;;;;13.10;93.70;;;;;;5028097;28;19920;-79
2023/05/18 12:38:28;;;;;;;;;;;13.20;93.60;;;;;;5021650;28;19917;-78
2023/05/18 12:40:55;;;;;;;;;;;13.30;93.20;;;;;;5029228;28;19909;-78
2023/05/18 12:43:24;;;;;;;;;;;13.30;93.10;;;;;;5020534;28;20369;-78
2023/05/18 12:45:50;;;;;;;;;;;13.40;92.90;;;;;;5030172;28;19909;-77
2023/05/18 12:48:15;;;;;;;;;;;13.50;92.70;;;;;;5028727;28;19917;-77
2023/05/18 12:50:47;;;;;;;;;;;13.60;93.20;;;;;;5027969;28;19956;-79
2023/05/18 12:53:13;;;;;;;;;;;13.70;93.60;;;;;;5022790;28;19909;-77
2023/05/18 12:55:39;;;;;;;;;;;13.80;93.30;;;;;;5030200;28;20547;-78
2023/05/18 12:58:06;;;;;;;;;;;13.90;92.90;;;;;;5027098;28;19916;-78
2023/05/18 13:00:36;;;;;;;;;;;14.00;92.70;;;;;;5030831;28;19913;-78
2023/05/18 13:03:08;;;;;;;;;;;14.00;92.00;;;;;;5030199;28;20330;-78
2023/05/18 13:05:34;;;;;;;;;;;14.00;92.00;;;;;;5025408;28;19916;-78
2023/05/18 13:07:59;;;;;;;;;;;14.10;92.10;;;;;;5028689;28;19912;-78
2023/05/18 13:10:28;;;;;;;;;;;14.10;92.30;;;;;;5030927;28;20769;-78
2023/05/18 13:12:57;;;;;;;;;;;14.20;92.50;;;;;;5030314;28;19967;-78
2023/05/18 13:15:23;;;;;;;;;;;14.30;92.90;;;;;;5027335;28;20272;-78
2023/05/18 13:18:01;;;;;;;;;;;14.40;92.90;;;;;;5029894;28;19987;-78
2023/05/18 13:20:31;;;;;;;;;;;14.40;93.00;;;;;;5029888;28;19906;-78
2023/05/18 13:22:58;;;;;;;;;;;14.50;92.90;;;;;;5029954;28;19986;-79
2023/05/18 13:25:24;;;;;;;;;;;14.50;93.30;;;;;;5029330;28;19967;-79
2023/05/18 13:27:50;;;;;;;;;;;14.50;93.20;;;;;;5027079;28;20434;-77
2023/05/18 13:30:16;;;;;;;;;;;14.60;93.10;;;;;;5029799;28;20377;-77
2023/05/18 13:32:41;;;;;;;;;;;14.60;92.90;;;;;;5028735;28;19975;-77
2023/05/18 13:35:07;;;;;;;;;;;14.70;92.40;;;;;;5029135;28;19916;-79
2023/05/18 13:37:32;;;;;;;;;;;14.70;91.70;;;;;;5025489;28;19913;-78
2023/05/18 13:39:58;;;;;;;;;;;14.70;91.70;;;;;;5028533;28;20003;-78
2023/05/18 13:42:24;;;;;;;;;;;14.70;92.00;;;;;;5028049;28;19999;-78
2023/05/18 13:44:49;;;;;;;;;;;14.80;92.20;;;;;;5025102;28;19916;-78
2023/05/18 13:47:15;;;;;;;;;;;14.80;92.10;;;;;;5029979;28;20430;-78
2023/05/18 13:49:40;;;;;;;;;;;14.90;91.70;;;;;;5025395;28;19913;-79
2023/05/18 13:52:06;;;;;;;;;;;14.90;91.80;;;;;;5029766;28;20290;-77
2023/05/18 13:54:31;;;;;;;;;;;15.00;92.00;;;;;;5029672;28;19916;-78
2023/05/18 13:56:57;;;;;;;;;;;15.10;92.10;;;;;;5029494;28;19913;-78
2023/05/18 13:59:22;;;;;;;;;;;15.10;92.00;;;;;;5024093;28;19905;-81
2023/05/18 14:01:48;;;;;;;;;;;15.20;91.40;;;;;;5027099;28;19916;-78
2023/05/18 14:04:13;;;;;;;;;;;15.20;90.60;;;;;;5029300;28;20015;-79
2023/05/18 14:06:39;;;;;;;;;;;15.30;90.70;;;;;;5028123;28;19992;-79
2023/05/18 14:09:05;;;;;;;;;;;15.30;90.80;;;;;;5029647;28;20344;-79
2023/05/18 14:11:33;;;;;;;;;;;15.40;90.40;;;;;;5025691;28;19916;-78
2023/05/18 14:13:59;;;;;;;;;;;15.40;90.60;;;;;;5026692;28;20316;-78